Time;durP1;ratioP1;P1;durP2;ratioP2;P2;SDS_P1;SDS_P2;PMS_P1;PMS_P2;Temp;Humidity;BMP_temperature;BMP_pressure;BME280_temperature;BME280_humidity;BME280_pressure;Samples;Min_cycle;Max_cycle;Signal;HPM_P1;HPM_P2
2022/03/05 00:00:47;;;;;;;19.02;9.80;;;;;;;0.71;77.60;101335.97;1609033;87;25990;-76
2022/03/05 00:03:14;;;;;;;16.77;8.28;;;;;;;0.70;77.55;101330.34;1604990;87;25711;-76
2022/03/05 00:05:41;;;;;;;15.13;7.83;;;;;;;0.68;77.45;101328.27;1609532;87;26504;-76
2022/03/05 00:08:07;;;;;;;14.93;7.75;;;;;;;0.70;77.35;101331.66;1584864;89;25946;-76
2022/03/05 00:10:34;;;;;;;16.80;7.78;;;;;;;0.70;77.15;101324.22;1609774;88;27498;-76
2022/03/05 00:13:00;;;;;;;12.85;6.58;;;;;;;0.70;77.01;101326.39;1583430;89;25823;-75
2022/03/05 00:15:28;;;;;;;11.65;6.42;;;;;;;0.71;76.82;101327.20;1607135;88;25448;-75
2022/03/05 00:17:56;;;;;;;10.05;5.92;;;;;;;0.71;76.44;101321.94;1607075;87;25853;-75
2022/03/05 00:20:24;;;;;;;12.20;6.12;;;;;;;0.71;75.82;101317.98;1607697;88;25920;-76
2022/03/05 00:22:52;;;;;;;11.18;6.40;;;;;;;0.72;75.96;101313.95;1607628;88;27542;-75
2022/03/05 00:25:21;;;;;;;9.78;5.12;;;;;;;0.72;75.72;101310.45;1581741;89;25921;-76
2022/03/05 00:27:48;;;;;;;10.85;5.67;;;;;;;0.72;75.66;101313.09;1609151;88;26334;-76
2022/03/05 00:30:14;;;;;;;12.68;6.03;;;;;;;0.70;75.38;101305.77;1606873;88;25853;-77
2022/03/05 00:32:42;;;;;;;10.00;5.28;;;;;;;0.69;75.20;101304.06;1585714;89;25863;-75
2022/03/05 00:35:10;;;;;;;11.20;4.92;;;;;;;0.68;75.13;101308.48;1609516;88;28265;-74
2022/03/05 00:37:37;;;;;;;13.78;5.87;;;;;;;0.68;74.98;101311.63;1606571;87;26607;-76
2022/03/05 00:40:05;;;;;;;9.93;5.65;;;;;;;0.66;74.97;101305.61;1584937;89;26616;-76
2022/03/05 00:42:33;;;;;;;14.30;6.55;;;;;;;0.64;74.96;101305.70;1609696;87;25903;-77
2022/03/05 00:45:00;;;;;;;12.70;6.12;;;;;;;0.64;75.01;101306.20;1610816;87;25814;-75
2022/03/05 00:47:26;;;;;;;9.78;5.47;;;;;;;0.63;74.90;101304.49;1608411;87;28229;-75
2022/03/05 00:49:53;;;;;;;11.33;5.12;;;;;;;0.62;74.91;101300.19;1582171;88;25918;-74
2022/03/05 00:52:20;;;;;;;9.35;4.83;;;;;;;0.60;74.65;101300.74;1610784;88;26590;-75
2022/03/05 00:54:47;;;;;;;10.88;5.28;;;;;;;0.57;74.64;101295.70;1608579;87;25806;-76
2022/03/05 00:57:13;;;;;;;8.55;5.37;;;;;;;0.55;74.90;101294.50;1581450;89;26566;-74
2022/03/05 00:59:40;;;;;;;8.48;4.87;;;;;;;0.54;74.95;101298.06;1607398;88;28426;-75
2022/03/05 01:02:06;;;;;;;7.83;4.58;;;;;;;0.56;74.89;101305.86;1606631;87;25786;-75
2022/03/05 01:04:33;;;;;;;9.90;5.28;;;;;;;0.55;74.69;101302.41;1607284;87;25773;-76
2022/03/05 01:06:59;;;;;;;13.98;6.03;;;;;;;0.57;74.73;101298.33;1609691;87;26110;-75
2022/03/05 01:09:25;;;;;;;8.18;4.55;;;;;;;0.57;74.46;101301.82;1582598;89;26487;-75
2022/03/05 01:11:51;;;;;;;9.30;4.60;;;;;;;0.57;74.51;101296.55;1605200;88;27535;-76
2022/03/05 01:14:18;;;;;;;10.38;5.28;;;;;;;0.58;74.50;101300.86;1581319;89;25905;-76
2022/03/05 01:16:44;;;;;;;9.80;4.67;;;;;;;0.57;74.35;101299.19;1608923;88;26470;-76
2022/03/05 01:19:10;;;;;;;11.83;4.80;;;;;;;0.59;74.45;101302.56;1607658;87;25769;-76
2022/03/05 01:21:36;;;;;;;7.55;4.47;;;;;;;0.63;74.25;101309.77;1581300;89;25830;-76
2022/03/05 01:24:03;;;;;;;10.15;4.72;;;;;;;0.65;74.55;101307.41;1608200;88;27445;-75
2022/03/05 01:26:30;;;;;;;11.68;7.10;;;;;;;0.71;74.77;101306.97;1607300;88;25338;-76
2022/03/05 01:28:57;;;;;;;9.10;5.08;;;;;;;0.77;74.62;101313.12;1610012;88;25881;-77
2022/03/05 01:31:23;;;;;;;8.38;5.10;;;;;;;0.80;74.46;101314.72;1581477;89;26472;-76
2022/03/05 01:33:50;;;;;;;8.90;5.30;;;;;;;0.82;74.37;101314.59;1609044;88;25821;-76
2022/03/05 01:36:16;;;;;;;9.08;4.80;;;;;;;0.85;74.32;101309.97;1607622;87;27569;-76
2022/03/05 01:38:42;;;;;;;7.05;4.47;;;;;;;0.87;74.13;101317.77;1608776;88;26063;-75
2022/03/05 01:41:09;;;;;;;8.10;4.37;;;;;;;0.87;74.17;101315.98;1581225;89;25900;-76
2022/03/05 01:43:35;;;;;;;10.05;4.40;;;;;;;0.91;74.10;101321.41;1610142;88;25817;-74
2022/03/05 01:46:02;;;;;;;7.72;4.12;;;;;;;0.92;74.08;101321.75;1583259;89;25931;-75
2022/03/05 01:48:28;;;;;;;7.72;4.05;;;;;;;0.93;73.74;101320.81;1604457;88;27463;-74
2022/03/05 01:50:56;;;;;;;8.18;3.95;;;;;;;0.92;73.55;101327.03;1584654;89;53124;-76
2022/03/05 01:53:22;;;;;;;8.08;3.47;;;;;;;0.90;73.08;101326.30;1604444;88;26636;-76
2022/03/05 01:55:50;;;;;;;6.80;2.92;;;;;;;0.84;72.84;101323.24;1576896;89;25838;-76
2022/03/05 01:58:17;;;;;;;7.25;3.65;;;;;;;0.77;72.73;101318.87;1609214;88;25897;-78
2022/03/05 02:00:43;;;;;;;7.20;3.52;;;;;;;0.74;72.62;101317.78;1582976;89;27996;-76
2022/03/05 02:03:10;;;;;;;4.90;3.47;;;;;;;0.73;72.74;101312.13;1601786;88;26107;-74
2022/03/05 02:05:36;;;;;;;6.25;3.95;;;;;;;0.74;72.74;101313.83;1607250;87;26021;-76
2022/03/05 02:08:05;;;;;;;7.70;3.52;;;;;;;0.75;72.74;101311.55;1605324;87;26593;-74
2022/03/05 02:10:32;;;;;;;9.98;3.95;;;;;;;0.76;72.65;101314.09;1581342;89;25959;-76
2022/03/05 02:12:58;;;;;;;8.10;4.20;;;;;;;0.77;72.93;101309.64;1603784;88;27518;-74
2022/03/05 02:15:24;;;;;;;8.33;4.35;;;;;;;0.79;72.99;101313.86;1608889;88;25977;-76
2022/03/05 02:17:50;;;;;;;4.37;3.00;;;;;;;0.84;73.04;101310.05;1581660;88;25786;-76
2022/03/05 02:20:17;;;;;;;6.72;3.05;;;;;;;0.87;72.95;101308.53;1599536;88;26533;-76
2022/03/05 02:22:43;;;;;;;9.18;3.62;;;;;;;0.86;72.83;101311.64;1605403;88;25819;-75
2022/03/05 02:25:09;;;;;;;5.62;3.20;;;;;;;0.88;72.76;101310.23;1585813;89;28147;-76
2022/03/05 02:27:35;;;;;;;4.67;2.92;;;;;;;0.90;72.76;101313.61;1606329;88;26491;-75
2022/03/05 02:30:03;;;;;;;7.62;3.12;;;;;;;0.91;72.57;101308.69;1609272;88;26574;-74
2022/03/05 02:32:30;;;;;;;7.83;3.55;;;;;;;0.90;72.38;101309.16;1583701;89;25849;-75
2022/03/05 02:34:56;;;;;;;5.03;2.67;;;;;;;0.88;72.37;101303.14;1607091;88;25866;-76
2022/03/05 02:37:22;;;;;;;4.75;2.90;;;;;;;0.88;71.79;101303.64;1610750;87;28271;-76
2022/03/05 02:39:49;;;;;;;4.72;2.42;;;;;;;0.82;71.37;101308.85;1608078;87;25666;-75
2022/03/05 02:42:17;;;;;;;5.45;3.22;;;;;;;0.78;71.36;101310.02;1581248;89;25821;-75
2022/03/05 02:44:45;;;;;;;4.60;2.52;;;;;;;0.72;70.76;101312.63;1608329;88;26448;-76
2022/03/05 02:47:11;;;;;;;5.25;2.55;;;;;;;0.68;70.96;101307.17;1611242;87;25779;-75
2022/03/05 02:49:38;;;;;;;5.55;2.77;;;;;;;0.62;70.47;101313.38;1577672;89;28274;-75
2022/03/05 02:52:05;;;;;;;5.60;2.52;;;;;;;0.55;70.52;101314.27;1608045;88;25836;-76
2022/03/05 02:54:31;;;;;;;6.58;3.02;;;;;;;0.47;70.31;101311.29;1604225;88;25814;-76
2022/03/05 02:56:57;;;;;;;3.75;2.40;;;;;;;0.43;70.27;101312.91;1581385;89;26500;-74
2022/03/05 02:59:25;;;;;;;5.50;2.70;;;;;;;0.42;70.32;101308.61;1609823;88;25836;-76
2022/03/05 03:01:51;;;;;;;5.35;3.40;;;;;;;0.42;70.55;101309.93;1588530;89;27478;-74
2022/03/05 03:04:17;;;;;;;5.00;2.80;;;;;;;0.44;70.89;101318.57;1606818;88;25843;-77
2022/03/05 03:06:43;;;;;;;4.78;2.90;;;;;;;0.45;70.54;101311.05;1607450;88;26560;-76
2022/03/05 03:09:10;;;;;;;6.15;3.70;;;;;;;0.45;70.62;101313.69;1607159;88;26532;-76
2022/03/05 03:11:36;;;;;;;3.58;2.35;;;;;;;0.44;70.54;101314.16;1607445;88;26001;-75
2022/03/05 03:14:02;;;;;;;5.22;2.70;;;;;;;0.45;70.42;101317.64;1609334;87;27532;-75
2022/03/05 03:16:29;;;;;;;4.40;2.77;;;;;;;0.45;70.43;101313.69;1582297;89;25821;-75
2022/03/05 03:18:56;;;;;;;5.10;2.72;;;;;;;0.47;70.50;101314.42;1606173;88;25799;-76
2022/03/05 03:21:22;;;;;;;5.45;2.80;;;;;;;0.47;70.06;101315.24;1607952;87;26537;-76
2022/03/05 03:23:48;;;;;;;4.90;2.50;;;;;;;0.46;69.98;101314.03;1581326;89;25887;-75
2022/03/05 03:26:15;;;;;;;5.50;2.45;;;;;;;0.44;70.06;101314.62;1610092;88;28300;-75
2022/03/05 03:28:41;;;;;;;6.08;2.85;;;;;;;0.43;70.19;101312.91;1582361;89;25908;-75
2022/03/05 03:31:07;;;;;;;5.20;2.60;;;;;;;0.43;70.33;101312.91;1608808;88;25826;-74
2022/03/05 03:33:33;;;;;;;4.03;2.55;;;;;;;0.44;70.43;101311.98;1600745;88;25930;-76
2022/03/05 03:35:59;;;;;;;4.87;2.62;;;;;;;0.48;70.39;101310.36;1608991;88;26421;-76
2022/03/05 03:38:26;;;;;;;5.67;2.58;;;;;;;0.50;70.24;101311.09;1584791;89;27464;-75
2022/03/05 03:40:52;;;;;;;5.47;2.90;;;;;;;0.52;70.41;101318.42;1606312;88;25301;-75
2022/03/05 03:43:19;;;;;;;4.28;2.50;;;;;;;0.53;70.43;101320.12;1582762;88;26558;-75
2022/03/05 03:45:45;;;;;;;5.45;2.92;;;;;;;0.56;70.29;101321.67;1608345;88;25809;-74
2022/03/05 03:48:11;;;;;;;5.65;3.12;;;;;;;0.58;69.98;101322.41;1607212;87;25906;-76
2022/03/05 03:50:37;;;;;;;4.25;3.08;;;;;;;0.60;70.05;101320.52;1607343;87;27483;-75
2022/03/05 03:53:04;;;;;;;3.17;2.55;;;;;;;0.59;69.94;101323.65;1607139;88;26492;-75
2022/03/05 03:55:30;;;;;;;5.50;2.62;;;;;;;0.59;69.93;101332.88;1607599;87;25872;-76
2022/03/05 03:57:56;;;;;;;3.67;2.62;;;;;;;0.58;69.87;101325.05;1605863;87;25835;-75
2022/03/05 04:00:23;;;;;;;3.83;2.27;;;;;;;0.57;69.63;101329.50;1578635;89;26290;-77
2022/03/05 04:02:50;;;;;;;3.92;2.60;;;;;;;0.51;69.64;101332.53;1600925;88;28384;-75
2022/03/05 04:05:16;;;;;;;4.22;2.90;;;;;;;0.47;69.53;101330.23;1609474;88;26149;-75
2022/03/05 04:10:27;;;;;;;4.37;2.60;;;;;;;0.44;70.08;101327.33;1602266;88;26513;-75
2022/03/05 04:12:53;;;;;;;5.25;2.60;;;;;;;0.44;70.08;101338.34;1580956;89;26434;-75
2022/03/05 04:15:20;;;;;;;3.95;2.60;;;;;;;0.45;69.90;101342.67;1608723;88;27466;-76
2022/03/05 04:17:46;;;;;;;4.55;2.80;;;;;;;0.43;69.66;101339.27;1610908;88;25823;-75
2022/03/05 04:20:13;;;;;;;6.45;2.72;;;;;;;0.43;69.69;101340.59;1610011;88;25881;-74
2022/03/05 04:22:39;;;;;;;5.58;2.50;;;;;;;0.42;69.46;101345.04;1584880;88;25865;-75
2022/03/05 04:25:07;;;;;;;5.92;2.87;;;;;;;0.41;69.45;101339.85;1603177;88;25749;-75
2022/03/05 04:27:33;;;;;;;6.37;2.85;;;;;;;0.37;69.44;101347.13;1581537;89;27482;-76
2022/03/05 04:30:00;;;;;;;5.45;3.27;;;;;;;0.35;69.40;101352.98;1608447;88;25905;-76
2022/03/05 04:32:26;;;;;;;5.25;2.70;;;;;;;0.34;69.55;101349.14;1603652;87;25762;-75
2022/03/05 04:34:52;;;;;;;3.90;2.65;;;;;;;0.34;69.61;101350.45;1610068;88;26677;-77
2022/03/05 04:37:19;;;;;;;5.00;2.90;;;;;;;0.33;69.73;101344.34;1583002;89;25873;-78
2022/03/05 04:39:45;;;;;;;4.03;2.67;;;;;;;0.34;69.77;101346.51;1605081;88;27479;-76
2022/03/05 04:42:12;;;;;;;4.30;2.67;;;;;;;0.34;69.68;101353.91;1580967;89;25926;-75
2022/03/05 04:44:38;;;;;;;6.50;2.70;;;;;;;0.34;69.80;101351.78;1608444;88;25868;-74
2022/03/05 04:47:04;;;;;;;5.95;2.90;;;;;;;0.35;69.79;101350.34;1614317;87;25814;-75
2022/03/05 04:49:30;;;;;;;5.78;3.47;;;;;;;0.35;69.73;101346.86;1610666;87;25791;-76
2022/03/05 04:51:56;;;;;;;4.50;3.05;;;;;;;0.36;69.70;101353.83;1609155;87;27474;-76
2022/03/05 04:54:25;;;;;;;5.12;3.25;;;;;;;0.35;69.58;101352.98;1581654;89;25804;-76
2022/03/05 04:56:51;;;;;;;4.08;2.75;;;;;;;0.35;69.78;101354.30;1607245;88;26237;-74
2022/03/05 04:59:17;;;;;;;3.95;2.65;;;;;;;0.35;69.57;101353.45;1614319;88;25805;-74
2022/03/05 05:01:44;;;;;;;4.72;3.05;;;;;;;0.34;69.67;101356.55;1606852;88;26592;-77
2022/03/05 05:04:10;;;;;;;5.33;3.42;;;;;;;0.37;69.79;101352.87;1598093;88;27457;-75
2022/03/05 05:06:36;;;;;;;5.25;3.02;;;;;;;0.39;69.67;101358.87;1607952;87;25955;-75
2022/03/05 05:09:02;;;;;;;7.08;2.98;;;;;;;0.42;69.61;101361.31;1598795;88;25903;-75
2022/03/05 05:11:29;;;;;;;5.15;3.00;;;;;;;0.43;69.69;101355.94;1602915;88;26045;-76
2022/03/05 05:13:55;;;;;;;5.22;2.85;;;;;;;0.45;69.64;101351.41;1613512;87;25310;-75
2022/03/05 05:16:22;;;;;;;6.40;2.67;;;;;;;0.46;69.58;101366.28;1607743;87;27443;-77
2022/03/05 05:21:33;;;;;;;4.62;3.08;;;;;;;0.47;69.33;101362.68;1605473;87;25885;-76
2022/03/05 05:23:59;;;;;;;5.33;2.90;;;;;;;0.47;69.53;101361.86;1608852;88;26568;-76
2022/03/05 05:26:25;;;;;;;5.50;3.10;;;;;;;0.48;69.22;101368.80;1604118;87;26480;-76
2022/03/05 05:28:52;;;;;;;4.08;2.60;;;;;;;0.48;69.38;101367.48;1583608;89;26861;-76
2022/03/05 05:31:18;;;;;;;4.35;2.85;;;;;;;0.50;69.38;101373.50;1611613;88;25779;-76
2022/03/05 05:33:45;;;;;;;4.47;2.92;;;;;;;0.49;69.40;101371.33;1609926;87;25892;-76
2022/03/05 05:36:13;;;;;;;4.25;2.70;;;;;;;0.50;69.41;101376.13;1580489;89;25808;-75
2022/03/05 05:38:40;;;;;;;4.50;2.87;;;;;;;0.49;69.27;101377.91;1606022;88;26313;-75
2022/03/05 05:41:07;;;;;;;7.62;3.00;;;;;;;0.52;69.39;101378.19;1606943;88;27474;-76
2022/03/05 05:43:33;;;;;;;5.85;2.92;;;;;;;0.52;69.18;101383.00;1590239;88;25837;-75
2022/03/05 05:46:00;;;;;;;5.12;3.00;;;;;;;0.53;69.40;101379.89;1603053;88;26008;-77
2022/03/05 05:48:26;;;;;;;3.55;2.52;;;;;;;0.54;69.19;101387.69;1613194;88;26531;-76
2022/03/05 05:50:52;;;;;;;5.45;3.12;;;;;;;0.53;69.23;101382.06;1608259;87;25960;-77
2022/03/05 05:53:18;;;;;;;5.97;3.02;;;;;;;0.53;69.06;101384.70;1595104;87;27529;-76
2022/03/05 05:55:44;;;;;;;6.90;3.47;;;;;;;0.51;69.21;101391.83;1609636;88;25837;-76
2022/03/05 05:58:11;;;;;;;6.35;3.30;;;;;;;0.51;69.12;101390.52;1585086;89;25841;-75
2022/03/05 06:00:37;;;;;;;4.60;2.83;;;;;;;0.51;69.24;101395.79;1604961;88;25807;-76
2022/03/05 06:03:03;;;;;;;5.30;3.02;;;;;;;0.51;69.09;101398.92;1586710;89;25808;-77
2022/03/05 06:05:29;;;;;;;4.65;3.25;;;;;;;0.50;69.17;101398.53;1609993;88;27441;-77
2022/03/05 06:07:56;;;;;;;4.25;2.92;;;;;;;0.51;69.01;101398.92;1606175;88;25501;-77
2022/03/05 06:10:22;;;;;;;3.65;2.45;;;;;;;0.48;69.12;101398.65;1590887;89;25821;-77
2022/03/05 06:12:49;;;;;;;5.00;3.08;;;;;;;0.50;69.22;101405.98;1599578;88;25957;-77
2022/03/05 06:15:15;;;;;;;6.45;3.20;;;;;;;0.49;69.16;101405.59;1598675;88;25823;-76
2022/03/05 06:17:42;;;;;;;5.75;2.95;;;;;;;0.51;69.27;101404.19;1604840;88;27471;-76
2022/03/05 06:20:11;;;;;;;6.25;3.52;;;;;;;0.51;69.03;101404.19;1605617;88;26125;-76
2022/03/05 06:22:38;;;;;;;6.47;3.27;;;;;;;0.53;69.25;101407.56;1594388;88;25874;-76
2022/03/05 06:25:06;;;;;;;5.62;2.70;;;;;;;0.53;68.93;101409.73;1608749;88;26533;-75
2022/03/05 06:27:32;;;;;;;5.03;3.45;;;;;;;0.52;69.01;101408.03;1607006;87;25831;-76
2022/03/05 06:29:59;;;;;;;6.42;3.40;;;;;;;0.50;69.17;101413.89;1594543;88;27427;-77
2022/03/05 06:32:25;;;;;;;7.00;3.52;;;;;;;0.53;69.31;101413.69;1604063;87;26467;-75
2022/03/05 06:34:54;;;;;;;4.42;2.90;;;;;;;0.53;69.25;101420.28;1607252;88;26620;-76
2022/03/05 06:37:22;;;;;;;6.78;4.00;;;;;;;0.53;69.09;101422.06;1608488;87;25771;-76
2022/03/05 06:39:49;;;;;;;4.40;3.10;;;;;;;0.54;69.23;101419.78;1581041;89;26470;-76
2022/03/05 06:42:16;;;;;;;4.53;3.00;;;;;;;0.53;69.15;101417.64;1607298;88;28374;-75
2022/03/05 06:44:43;;;;;;;7.20;3.40;;;;;;;0.54;69.12;101423.73;1608464;87;25853;-77
2022/03/05 06:47:09;;;;;;;8.80;3.40;;;;;;;0.53;69.18;101429.51;1584345;88;25965;-75
2022/03/05 06:49:35;;;;;;;6.05;3.12;;;;;;;0.56;69.38;101425.33;1602151;88;25912;-76
2022/03/05 06:52:01;;;;;;;6.92;3.52;;;;;;;0.58;69.65;101428.70;1602797;88;25817;-76
2022/03/05 06:54:28;;;;;;;4.50;3.08;;;;;;;0.62;69.55;101428.87;1611033;88;27569;-75
2022/03/05 06:56:54;;;;;;;5.85;3.00;;;;;;;0.62;69.16;101429.36;1599943;88;25905;-76
2022/03/05 06:59:20;;;;;;;5.17;3.22;;;;;;;0.61;69.18;101433.78;1608785;87;25814;-76
2022/03/05 07:01:46;;;;;;;5.92;3.50;;;;;;;0.62;69.29;101431.50;1577810;89;25924;-77
2022/03/05 07:04:12;;;;;;;4.45;2.52;;;;;;;0.65;68.99;101437.05;1606754;88;25886;-76
2022/03/05 07:06:39;;;;;;;6.35;3.70;;;;;;;0.63;68.92;101437.16;1609107;87;28214;-77
2022/03/05 07:09:05;;;;;;;7.80;3.98;;;;;;;0.64;68.97;101433.56;1584738;89;25892;-75
2022/03/05 07:11:32;;;;;;;5.25;3.60;;;;;;;0.63;68.68;101434.52;1606543;88;25846;-76
2022/03/05 07:13:59;;;;;;;7.28;4.05;;;;;;;0.65;68.91;101441.00;1610718;88;25961;-76
2022/03/05 07:16:25;;;;;;;5.97;3.77;;;;;;;0.68;69.20;101439.49;1608123;88;26009;-76
2022/03/05 07:18:51;;;;;;;8.48;3.83;;;;;;;0.73;68.98;101437.37;1580945;89;27640;-75
2022/03/05 07:21:18;;;;;;;7.30;3.22;;;;;;;0.77;69.14;101438.38;1611701;88;25789;-78
2022/03/05 07:23:44;;;;;;;4.67;3.33;;;;;;;0.81;68.74;101445.62;1607857;87;26525;-76
2022/03/05 07:26:10;;;;;;;6.35;3.67;;;;;;;0.83;68.47;101444.20;1581515;89;25839;-76
2022/03/05 07:28:36;;;;;;;7.25;3.90;;;;;;;0.86;68.67;101443.50;1602986;88;26356;-79
2022/03/05 07:31:03;;;;;;;9.10;3.52;;;;;;;0.89;68.61;101439.82;1581194;88;28726;-78
2022/03/05 07:33:29;;;;;;;6.17;3.77;;;;;;;0.90;68.20;101445.48;1609526;88;25905;-79
2022/03/05 07:35:55;;;;;;;6.12;3.62;;;;;;;0.90;67.96;101450.25;1585408;89;25856;-79
2022/03/05 07:38:21;;;;;;;7.55;4.05;;;;;;;0.91;67.47;101455.91;1605380;88;25822;-79
2022/03/05 07:40:48;;;;;;;7.08;3.70;;;;;;;0.92;67.87;101452.81;1607412;88;26491;-80
2022/03/05 07:43:14;;;;;;;5.28;3.37;;;;;;;0.93;68.05;101449.20;1604751;88;27660;-79
2022/03/05 07:45:40;;;;;;;7.97;3.35;;;;;;;0.98;67.96;101456.34;1604841;88;25928;-79
2022/03/05 07:48:07;;;;;;;4.12;2.83;;;;;;;0.99;67.67;101452.27;1606682;87;25811;-79
2022/03/05 07:50:34;;;;;;;5.47;3.58;;;;;;;1.02;67.75;101452.55;1604493;88;25844;-82
2022/03/05 07:53:01;;;;;;;5.22;3.58;;;;;;;1.05;68.01;101453.66;1605708;88;25894;-80
2022/03/05 07:55:27;;;;;;;7.55;3.80;;;;;;;1.06;67.13;101453.55;1600671;87;27491;-79
2022/03/05 07:57:53;;;;;;;9.25;3.95;;;;;;;1.06;67.30;101457.51;1606789;88;26447;-81
2022/03/05 08:00:19;;;;;;;6.70;3.72;;;;;;;1.08;67.82;101457.39;1611150;88;25841;-80
2022/03/05 08:02:45;;;;;;;6.08;3.37;;;;;;;1.13;67.74;101458.78;1607880;87;25926;-79
2022/03/05 08:05:12;;;;;;;5.90;3.47;;;;;;;1.14;67.13;101460.45;1581093;89;26006;-79
2022/03/05 08:07:38;;;;;;;8.00;3.87;;;;;;;1.17;67.23;101456.30;1607314;87;27455;-79
2022/03/05 08:10:07;;;;;;;6.92;3.20;;;;;;;1.18;67.02;101463.72;1593010;88;26475;-79
2022/03/05 08:12:35;;;;;;;5.08;3.15;;;;;;;1.20;66.39;101459.17;1605009;88;25958;-79
2022/03/05 08:15:03;;;;;;;7.20;3.98;;;;;;;1.20;67.37;101460.03;1612543;87;26139;-80
2022/03/05 08:17:30;;;;;;;6.15;3.33;;;;;;;1.28;67.79;101460.83;1585030;88;25753;-79
2022/03/05 08:19:56;;;;;;;8.08;3.30;;;;;;;1.35;67.78;101467.35;1607703;88;27512;-81
2022/03/05 08:22:23;;;;;;;7.60;4.45;;;;;;;1.41;67.22;101467.77;1608403;87;26004;-80
2022/03/05 08:24:49;;;;;;;7.90;4.05;;;;;;;1.43;67.07;101464.55;1579855;89;25818;-80
2022/03/05 08:27:15;;;;;;;4.25;3.10;;;;;;;1.48;66.83;101474.31;1617468;88;25856;-79
2022/03/05 08:29:42;;;;;;;5.53;3.20;;;;;;;1.52;66.94;101470.98;1616890;87;25917;-79
2022/03/05 08:32:09;;;;;;;4.15;3.22;;;;;;;1.56;66.65;101466.70;1582692;89;27437;-79
2022/03/05 08:34:35;;;;;;;5.47;3.40;;;;;;;1.57;65.40;101475.47;1602306;88;25915;-79
2022/03/05 08:37:02;;;;;;;4.72;3.37;;;;;;;1.56;66.14;101469.84;1602066;88;25804;-79
2022/03/05 08:39:28;;;;;;;7.22;3.60;;;;;;;1.61;66.40;101476.08;1605208;88;25857;-78
2022/03/05 08:41:56;;;;;;;4.97;3.08;;;;;;;1.61;65.75;101476.94;1607523;88;25972;-79
2022/03/05 08:44:22;;;;;;;5.20;3.37;;;;;;;1.65;65.78;101477.58;1584928;88;27481;-79
2022/03/05 08:46:48;;;;;;;5.65;3.25;;;;;;;1.69;66.11;101478.55;1609226;88;26121;-79
2022/03/05 08:49:15;;;;;;;7.35;3.00;;;;;;;1.72;65.69;101479.67;1607588;88;26326;-75
2022/03/05 08:51:41;;;;;;;6.50;3.50;;;;;;;1.73;65.60;101483.16;1597290;88;25802;-74
2022/03/05 08:54:07;;;;;;;5.33;3.60;;;;;;;1.76;65.44;101490.84;1608720;88;25841;-75
2022/03/05 08:56:33;;;;;;;3.42;2.85;;;;;;;1.78;65.36;101486.30;1589030;88;27475;-74
2022/03/05 08:59:00;;;;;;;6.05;3.17;;;;;;;1.78;63.71;101484.51;1604976;88;25917;-75
2022/03/05 09:01:26;;;;;;;5.65;2.85;;;;;;;1.74;64.05;101488.33;1612565;87;25989;-75
2022/03/05 09:03:52;;;;;;;5.03;3.37;;;;;;;1.75;64.02;101490.03;1593173;88;26591;-75
2022/03/05 09:06:19;;;;;;;5.62;3.42;;;;;;;1.74;64.06;101490.11;1610886;88;25946;-74
2022/03/05 09:08:45;;;;;;;5.28;3.20;;;;;;;1.77;64.52;101487.27;1607509;87;28221;-75
2022/03/05 09:11:11;;;;;;;5.35;3.05;;;;;;;1.81;63.88;101496.66;1607146;87;26473;-75
2022/03/05 09:13:37;;;;;;;6.15;3.00;;;;;;;1.80;63.81;101502.41;1607546;88;25814;-75
2022/03/05 09:16:04;;;;;;;7.45;3.85;;;;;;;1.75;63.47;101499.27;1588444;88;25908;-75
2022/03/05 09:18:30;;;;;;;5.58;3.27;;;;;;;1.73;63.43;101497.69;1606562;88;25762;-75
2022/03/05 09:20:57;;;;;;;5.47;3.08;;;;;;;1.75;63.85;101497.95;1584694;89;27491;-74
2022/03/05 09:23:23;;;;;;;5.37;3.15;;;;;;;1.82;63.34;101501.00;1604132;88;26577;-76
2022/03/05 09:25:49;;;;;;;5.75;3.10;;;;;;;1.84;63.87;101505.20;1599244;88;25849;-75
2022/03/05 09:28:16;;;;;;;7.47;4.12;;;;;;;1.87;63.50;101504.99;1608455;88;25736;-76
2022/03/05 09:30:42;;;;;;;5.95;3.00;;;;;;;1.90;62.96;101506.11;1609566;87;25930;-73
2022/03/05 09:33:08;;;;;;;4.50;2.90;;;;;;;1.90;62.35;101503.47;1582643;89;27478;-74
2022/03/05 09:35:35;;;;;;;5.53;3.62;;;;;;;1.91;62.18;101506.93;1605213;88;25828;-75
2022/03/05 09:38:01;;;;;;;5.30;2.92;;;;;;;1.92;62.14;101507.31;1610093;88;25917;-73
2022/03/05 09:40:28;;;;;;;5.37;2.90;;;;;;;1.97;62.96;101503.84;1583445;89;25941;-75
2022/03/05 09:42:55;;;;;;;4.90;3.00;;;;;;;2.01;62.38;101510.63;1605515;88;25806;-75
2022/03/05 09:45:22;;;;;;;5.85;3.67;;;;;;;2.03;62.39;101507.39;1581642;89;28466;-73
2022/03/05 09:47:48;;;;;;;4.87;2.70;;;;;;;2.09;62.76;101512.23;1611353;87;26731;-74
2022/03/05 09:50:14;;;;;;;4.67;2.75;;;;;;;2.18;62.73;101506.30;1610158;88;25879;-76
2022/03/05 09:52:41;;;;;;;3.40;2.33;;;;;;;2.25;62.02;101512.80;1604770;87;25930;-73
2022/03/05 09:55:08;;;;;;;4.67;2.75;;;;;;;2.26;61.21;101507.42;1579446;89;26319;-74
2022/03/05 09:57:35;;;;;;;3.20;2.17;;;;;;;2.30;61.42;101513.31;1606654;88;28159;-74
2022/03/05 10:00:04;;;;;;;3.33;2.40;;;;;;;2.28;60.27;101512.12;1608538;88;26488;-75
2022/03/05 10:02:30;;;;;;;4.17;2.75;;;;;;;2.32;60.51;101511.41;1586260;88;25869;-75
2022/03/05 10:05:27;;;;;;;5.17;3.47;;;;;;;2.39;61.17;101507.37;1601922;88;26541;-75
2022/03/05 10:08:15;;;;;;;4.70;2.80;;;;;;;2.45;60.30;101512.20;1606476;88;26573;-75
2022/03/05 10:10:49;;;;;;;5.12;3.20;;;;;;;2.42;59.07;101512.91;1606952;87;28381;-75
2022/03/05 10:13:30;;;;;;;8.20;3.70;;;;;;;2.37;58.86;101522.50;1607126;88;25899;-75
2022/03/05 10:16:00;;;;;;;6.05;3.20;;;;;;;2.31;59.85;101518.48;1584311;89;25995;-73
2022/03/05 10:18:39;;;;;;;5.75;3.72;;;;;;;2.30;59.14;101521.25;1610107;88;26019;-75
2022/03/05 10:21:10;;;;;;;3.72;2.75;;;;;;;2.25;59.51;101526.86;1582603;89;25868;-75
2022/03/05 10:23:42;;;;;;;4.15;2.60;;;;;;;2.22;58.62;101523.61;1610070;88;27500;-73
2022/03/05 10:26:10;;;;;;;3.12;2.12;;;;;;;2.16;57.66;101525.37;1580650;89;25987;-75
2022/03/05 10:28:38;;;;;;;4.05;2.80;;;;;;;2.11;57.09;101531.47;1605543;87;25833;-75
2022/03/05 10:31:09;;;;;;;5.70;3.02;;;;;;;2.07;57.42;101533.96;1608655;87;25937;-75
2022/03/05 10:33:47;;;;;;;4.40;2.33;;;;;;;2.08;57.87;101538.28;1602230;88;25783;-75
2022/03/05 10:36:25;;;;;;;3.27;2.75;;;;;;;2.10;58.23;101533.72;1604667;88;26952;-75
2022/03/05 10:39:04;;;;;;;3.83;2.00;;;;;;;2.14;58.09;101541.33;1604781;88;26035;-74
2022/03/05 10:41:40;;;;;;;3.42;1.72;;;;;;;2.18;58.33;101542.79;1580587;88;25827;-74
2022/03/05 10:44:19;;;;;;;4.03;2.27;;;;;;;2.17;55.88;101545.08;1608391;88;25843;-75
2022/03/05 10:46:59;;;;;;;5.50;2.70;;;;;;;2.11;56.50;101538.92;1609864;88;25834;-74
2022/03/05 10:49:37;;;;;;;3.52;2.20;;;;;;;2.09;56.27;101539.98;1590936;88;27504;-74
2022/03/05 10:52:07;;;;;;;3.45;2.45;;;;;;;2.09;56.03;101541.30;1605232;88;26156;-73
2022/03/05 10:54:42;;;;;;;5.35;2.52;;;;;;;2.07;56.02;101534.81;1590783;88;25969;-75
2022/03/05 10:57:19;;;;;;;3.02;2.47;;;;;;;2.09;56.02;101536.87;1603672;88;25853;-76
2022/03/05 10:59:52;;;;;;;4.37;2.70;;;;;;;2.11;56.32;101536.75;1604618;88;25779;-75
2022/03/05 11:02:22;;;;;;;4.80;2.35;;;;;;;2.13;55.94;101535.69;1601699;88;26973;-76
2022/03/05 11:04:50;;;;;;;2.92;2.25;;;;;;;2.13;55.50;101534.84;1607474;88;25932;-74
2022/03/05 11:07:19;;;;;;;3.47;2.20;;;;;;;2.12;55.12;101537.95;1603727;87;26038;-75
2022/03/05 11:09:49;;;;;;;4.42;2.15;;;;;;;2.11;55.10;101533.64;1610217;88;25847;-73
2022/03/05 11:12:18;;;;;;;4.00;2.45;;;;;;;2.16;55.80;101535.95;1608698;88;25791;-73
2022/03/05 11:14:46;;;;;;;3.42;2.52;;;;;;;2.20;55.88;101527.66;1607292;87;28871;-74
2022/03/05 11:17:14;;;;;;;4.47;2.55;;;;;;;2.28;56.11;101522.69;1603788;88;25938;-76
2022/03/05 11:19:41;;;;;;;2.85;2.27;;;;;;;2.33;56.41;101523.18;1608896;88;25900;-74
2022/03/05 11:22:14;;;;;;;3.10;2.25;;;;;;;2.36;54.48;101518.16;1604910;88;26511;-74
2022/03/05 11:24:43;;;;;;;3.10;2.40;;;;;;;2.37;55.02;101516.36;1611030;88;25912;-74
2022/03/05 11:27:14;;;;;;;5.58;2.60;;;;;;;2.40;55.37;101521.41;1608772;87;28790;-74
2022/03/05 11:30:00;;;;;;;3.47;2.52;;;;;;;2.46;55.66;101513.05;1581269;89;25936;-75
2022/03/05 11:32:32;;;;;;;3.62;2.05;;;;;;;2.50;55.66;101513.19;1606221;88;25870;-74
2022/03/05 11:34:59;;;;;;;3.65;2.40;;;;;;;2.52;55.49;101513.45;1584924;89;25789;-75
2022/03/05 11:37:35;;;;;;;4.60;2.92;;;;;;;2.52;54.14;101514.77;1603692;88;25329;-75